Boadilla del Monte, Spain
Current Conditions -  °F | °C
As of 4:00 PM on Saturday 20 Dec 2014 (Local Time) from LEVS Reporting Station
Clear Clear  
Wind Chill: 63°   Ceiling: Unl
Heat Index: 63°   Visibility: 6mi
Dew Point: 32°   Wind: 0mph
Humidity: 32%   Direction: NA
Pressure: 30.48"   Gusts: NA
Location:  40.41°N, 3.88°W
Report Text: LEVS 201500Z 00000KT CAVOK 17/00 Q1032
Loading
Personal Weather Stations






























Interactive Weather Map New forecast layout! Learn more

10-Day Weather Forecast

Advertisements
Track Severe Weather on mobile